首页
METAR-TAF:

METAR-TAF

机场 :

格洛斯特, 英格兰

纬度: 51-54N, 经度: 002-10W, 海拔: 29米

当前天气观测

该预报发布于8小时和39分钟前的18:20 UTC
风速7节,风向
温度 20°C
湿度 60%
气压 1014 hPa
能见度10公里或以上
少量云层高于3000英尺
多云层高于4900英尺

METAR: EGBJ 171820Z 35007KT 9999 FEW030 BKN049 20/12 Q1014

时间: 03:59 (02:59 UTC)

预报

该预报发布于12小时和55分钟前的14:04 UTC
预报有效从17日的 15点(UTC)到 17日的 19点(UTC)
风速5节,风向北转西北
能见度10公里或以上
散云层高于3000英尺

TAF: EGBJ 171404Z 1715/1719 33005KT 9999 SCT030

超过4000个机场的气象观测和天气预报(METAR&TAF报告)。

可查询的气象台以黄色和红色小点在地图上表示。

将鼠标移到小点上方,可查看气象台名称。

然后点击查看天气观测和预报。

如需切换地图:点击带黑十字的绿色按钮放大地图;点击带横线的绿色按钮缩小地图;或者点击绿色箭头查看邻近地区的地图。


METAR-TAF: